Time;durP1;ratioP1;P1;durP2;ratioP2;P2;SDS_P1;SDS_P2;PMS_P1;PMS_P2;Temp;Humidity;BMP_temperature;BMP_pressure;BME280_temperature;BME280_humidity;BME280_pressure;Samples;Min_cycle;Max_cycle;Signal;HPM_P1;HPM_P2
2023/01/07 00:01:30;;;;;;;14.67;5.40;;;;;;;;;;4931856;29;20879;-62
2023/01/07 00:03:57;;;;;;;17.70;5.27;;;;;;;;;;4932707;29;20458;-62
2023/01/07 00:06:24;;;;;;;14.60;5.03;;;;;;;;;;4931946;29;20442;-62
2023/01/07 00:08:51;;;;;;;13.87;4.70;;;;;;;;;;4929785;29;20989;-62
2023/01/07 00:11:19;;;;;;;15.20;5.37;;;;;;;;;;4914562;29;20451;-63
2023/01/07 00:13:47;;;;;;;12.87;5.17;;;;;;;;;;4931540;29;20533;-62
2023/01/07 00:16:15;;;;;;;16.83;4.97;;;;;;;;;;4932545;29;20443;-61
2023/01/07 00:18:59;;;;;;;18.30;5.63;;;;;;;;;;4932250;29;20538;-62
2023/01/07 00:21:26;;;;;;;14.00;4.70;;;;;;;;;;4932226;29;20458;-62
2023/01/07 00:24:10;;;;;;;13.43;4.33;;;;;;;;;;4932229;29;20179;-62
2023/01/07 00:26:37;;;;;;;18.53;4.60;;;;;;;;;;4926295;29;20494;-61
2023/01/07 00:29:04;;;;;;;17.23;4.97;;;;;;;;;;4915415;29;20450;-62
2023/01/07 00:31:32;;;;;;;18.73;5.50;;;;;;;;;;4932000;29;20426;-62
2023/01/07 00:36:29;;;;;;;22.60;5.97;;;;;;;;;;4931236;29;20434;-62
2023/01/07 00:38:57;;;;;;;14.43;5.20;;;;;;;;;;4932159;29;20506;-62
2023/01/07 00:41:24;;;;;;;12.47;4.87;;;;;;;;;;4916649;29;20459;-61
2023/01/07 00:44:09;;;;;;;12.57;4.60;;;;;;;;;;4931193;29;20437;-61
2023/01/07 00:46:35;;;;;;;14.23;4.23;;;;;;;;;;4931523;29;20199;-61
2023/01/07 00:49:23;;;;;;;13.70;4.53;;;;;;;;;;4918393;29;21246;-63
2023/01/07 00:51:50;;;;;;;16.77;4.70;;;;;;;;;;4931864;29;20808;-61
2023/01/07 00:54:34;;;;;;;14.57;4.97;;;;;;;;;;4916837;29;20829;-62
2023/01/07 00:57:01;;;;;;;17.37;5.70;;;;;;;;;;4898915;29;20443;-61
2023/01/07 00:59:45;;;;;;;13.57;5.13;;;;;;;;;;4931598;29;20430;-62
2023/01/07 01:02:12;;;;;;;15.33;6.40;;;;;;;;;;4930459;29;20490;-61
2023/01/07 01:04:56;;;;;;;17.80;7.00;;;;;;;;;;4931788;29;20431;-61
2023/01/07 01:07:23;;;;;;;20.67;7.90;;;;;;;;;;4913476;29;21172;-62
2023/01/07 01:09:50;;;;;;;19.70;7.00;;;;;;;;;;4931044;29;21013;-62
2023/01/07 01:12:16;;;;;;;23.93;7.40;;;;;;;;;;4933481;29;20451;-62
2023/01/07 01:14:43;;;;;;;17.07;7.17;;;;;;;;;;4935407;29;20867;-62
2023/01/07 01:17:09;;;;;;;24.87;7.80;;;;;;;;;;4935051;29;20507;-62
2023/01/07 01:19:36;;;;;;;25.23;7.93;;;;;;;;;;4935374;29;20519;-62
2023/01/07 01:22:03;;;;;;;26.40;7.90;;;;;;;;;;4934919;29;20521;-63
2023/01/07 01:24:29;;;;;;;17.87;7.60;;;;;;;;;;4922735;29;20453;-62
2023/01/07 01:26:56;;;;;;;20.23;7.23;;;;;;;;;;4935150;29;20478;-62
2023/01/07 01:29:23;;;;;;;27.77;8.20;;;;;;;;;;4935279;29;20454;-62
2023/01/07 01:31:50;;;;;;;20.93;7.77;;;;;;;;;;4935117;29;20439;-62
2023/01/07 01:34:17;;;;;;;19.67;7.30;;;;;;;;;;4934951;29;20442;-61
2023/01/07 01:36:43;;;;;;;25.57;7.90;;;;;;;;;;4926031;29;20457;-62
2023/01/07 01:39:10;;;;;;;16.47;6.80;;;;;;;;;;4933037;29;20458;-62
2023/01/07 01:41:37;;;;;;;19.10;7.23;;;;;;;;;;4917480;29;20466;-62
2023/01/07 02:16:06;;;;;;;19.60;7.50;;;;;;;;;;4935008;29;20530;-62
2023/01/07 02:18:36;;;;;;;22.20;7.47;;;;;;;;;;4917196;29;20456;-61
2023/01/07 02:21:30;;;;;;;21.07;6.83;;;;;;;;;;4933187;29;20461;-61
2023/01/07 02:24:14;;;;;;;19.87;6.97;;;;;;;;;;4901223;29;20985;-62
2023/01/07 02:26:59;;;;;;;17.00;6.60;;;;;;;;;;4933294;29;20532;-62
2023/01/07 02:29:27;;;;;;;21.73;7.40;;;;;;;;;;4916055;29;20195;-61
2023/01/07 02:32:12;;;;;;;18.40;8.30;;;;;;;;;;4914386;29;20431;-62
2023/01/07 02:34:45;;;;;;;24.73;7.97;;;;;;;;;;4929498;29;20443;-62
2023/01/07 02:37:13;;;;;;;19.40;6.97;;;;;;;;;;4914348;29;20444;-62
2023/01/07 02:39:44;;;;;;;20.00;7.47;;;;;;;;;;4930706;29;20473;-61
2023/01/07 02:42:23;;;;;;;25.47;7.50;;;;;;;;;;4916885;29;20451;-61
2023/01/07 02:44:53;;;;;;;24.97;7.93;;;;;;;;;;4926733;29;20965;-61
2023/01/07 02:47:19;;;;;;;24.43;7.70;;;;;;;;;;4916807;29;20497;-62
2023/01/07 02:49:46;;;;;;;18.13;7.33;;;;;;;;;;4916892;29;20203;-62
2023/01/07 02:52:31;;;;;;;24.27;7.47;;;;;;;;;;4916948;29;20445;-61
2023/01/07 02:54:58;;;;;;;16.13;6.47;;;;;;;;;;4916872;29;20453;-61
2023/01/07 02:57:24;;;;;;;26.70;7.20;;;;;;;;;;4920187;29;20449;-63
2023/01/07 02:59:51;;;;;;;22.37;8.03;;;;;;;;;;4932058;29;20501;-62
2023/01/07 03:02:36;;;;;;;22.67;7.70;;;;;;;;;;4933637;29;20849;-62
2023/01/07 03:05:23;;;;;;;22.20;7.37;;;;;;;;;;4931014;29;20442;-61
2023/01/07 03:07:57;;;;;;;17.97;6.87;;;;;;;;;;4921004;29;20815;-62
2023/01/07 03:10:47;;;;;;;23.10;8.00;;;;;;;;;;4932118;29;20489;-62
2023/01/07 03:13:18;;;;;;;22.83;7.40;;;;;;;;;;4933605;29;21018;-62
2023/01/07 03:15:49;;;;;;;23.83;8.17;;;;;;;;;;4896661;29;20943;-61
2023/01/07 03:18:21;;;;;;;17.90;6.77;;;;;;;;;;4924951;29;20855;-62
2023/01/07 03:20:48;;;;;;;19.33;7.90;;;;;;;;;;4916546;29;20542;-62
2023/01/07 03:23:15;;;;;;;18.80;7.00;;;;;;;;;;4932890;29;21001;-62
2023/01/07 03:25:43;;;;;;;20.83;6.97;;;;;;;;;;4916105;29;20475;-62
2023/01/07 03:28:10;;;;;;;17.43;7.00;;;;;;;;;;4933289;29;20738;-62
2023/01/07 03:30:37;;;;;;;20.90;7.03;;;;;;;;;;4931654;29;20454;-62
2023/01/07 03:33:06;;;;;;;24.83;7.73;;;;;;;;;;4917487;29;20436;-62
2023/01/07 03:35:33;;;;;;;21.80;6.77;;;;;;;;;;4915977;29;21040;-62
2023/01/07 03:38:00;;;;;;;19.83;7.17;;;;;;;;;;4904596;29;20883;-62
2023/01/07 03:40:27;;;;;;;19.70;7.33;;;;;;;;;;4912795;29;20444;-61
2023/01/07 03:42:54;;;;;;;19.20;6.43;;;;;;;;;;4902874;29;20475;-62
2023/01/07 03:45:22;;;;;;;18.00;6.40;;;;;;;;;;4926273;29;20192;-62
2023/01/07 03:47:52;;;;;;;22.20;7.10;;;;;;;;;;4915632;29;20451;-62
2023/01/07 03:50:37;;;;;;;22.20;6.43;;;;;;;;;;4920058;29;20439;-61
2023/01/07 03:53:04;;;;;;;20.83;7.07;;;;;;;;;;4916070;29;20458;-62
2023/01/07 03:55:34;;;;;;;22.37;8.13;;;;;;;;;;4932817;29;20631;-62
2023/01/07 03:58:00;;;;;;;27.93;7.60;;;;;;;;;;4933173;29;20423;-62
2023/01/07 04:00:27;;;;;;;26.13;8.40;;;;;;;;;;4915961;29;20443;-62
2023/01/07 04:03:02;;;;;;;25.13;7.73;;;;;;;;;;4915797;29;20713;-62
2023/01/07 04:05:34;;;;;;;15.97;7.50;;;;;;;;;;4927248;29;20211;-62
2023/01/07 04:08:01;;;;;;;26.10;8.10;;;;;;;;;;4931062;29;20561;-62
2023/01/07 04:10:32;;;;;;;21.23;8.50;;;;;;;;;;4915354;29;20246;-62
2023/01/07 04:12:58;;;;;;;19.03;7.83;;;;;;;;;;4931479;29;20231;-62
2023/01/07 04:15:25;;;;;;;19.63;7.53;;;;;;;;;;4932838;29;20427;-62
2023/01/07 04:17:52;;;;;;;23.60;7.83;;;;;;;;;;4915626;29;20862;-62
2023/01/07 04:20:19;;;;;;;19.63;7.87;;;;;;;;;;4914574;29;20191;-62
2023/01/07 04:22:45;;;;;;;15.80;7.30;;;;;;;;;;4932754;29;20513;-62
2023/01/07 04:25:12;;;;;;;22.50;7.27;;;;;;;;;;4915122;29;20506;-62
2023/01/07 04:27:39;;;;;;;20.57;8.27;;;;;;;;;;4928241;29;20211;-62
2023/01/07 04:30:06;;;;;;;18.77;7.70;;;;;;;;;;4905837;29;20257;-62
2023/01/07 04:32:33;;;;;;;21.30;7.70;;;;;;;;;;4932118;29;20781;-62
2023/01/07 04:35:00;;;;;;;26.93;8.70;;;;;;;;;;4932065;29;20191;-62
2023/01/07 04:37:28;;;;;;;18.90;7.97;;;;;;;;;;4915127;29;20226;-62
2023/01/07 04:39:55;;;;;;;19.73;8.40;;;;;;;;;;4915320;29;20222;-62
2023/01/07 04:42:22;;;;;;;21.53;7.97;;;;;;;;;;4931998;29;20466;-62
2023/01/07 04:45:07;;;;;;;17.60;7.83;;;;;;;;;;4912029;29;20183;-62
2023/01/07 04:47:34;;;;;;;19.40;7.73;;;;;;;;;;4917681;29;20795;-62
2023/01/07 04:50:02;;;;;;;25.27;8.10;;;;;;;;;;4918362;29;20209;-63
2023/01/07 04:52:31;;;;;;;21.70;7.53;;;;;;;;;;4919161;29;20983;-62
2023/01/07 04:54:58;;;;;;;25.33;8.57;;;;;;;;;;4935806;29;20210;-62
2023/01/07 04:57:24;;;;;;;20.03;8.80;;;;;;;;;;4918740;29;20550;-62
2023/01/07 04:59:52;;;;;;;17.67;7.10;;;;;;;;;;4918911;29;20486;-62
2023/01/07 05:02:18;;;;;;;21.00;7.40;;;;;;;;;;4933511;29;20462;-62
2023/01/07 05:04:46;;;;;;;15.30;6.63;;;;;;;;;;4934117;29;20460;-62
2023/01/07 05:07:14;;;;;;;15.77;7.07;;;;;;;;;;4934552;29;20799;-62
2023/01/07 05:09:40;;;;;;;10.37;5.83;;;;;;;;;;4919878;29;20453;-62
2023/01/07 05:12:07;;;;;;;14.97;6.60;;;;;;;;;;4918818;29;20430;-62
2023/01/07 05:14:34;;;;;;;11.40;5.90;;;;;;;;;;4918808;29;20438;-62
2023/01/07 05:17:00;;;;;;;9.73;5.37;;;;;;;;;;4934479;29;20191;-62
2023/01/07 05:19:29;;;;;;;13.13;5.93;;;;;;;;;;4918914;29;20203;-62
2023/01/07 05:21:56;;;;;;;13.47;6.00;;;;;;;;;;4930351;29;20462;-62
2023/01/07 05:24:26;;;;;;;12.77;5.77;;;;;;;;;;4933670;29;20838;-62
2023/01/07 05:27:10;;;;;;;15.40;6.63;;;;;;;;;;4919118;29;20248;-62
2023/01/07 05:29:37;;;;;;;10.10;6.43;;;;;;;;;;4935432;29;20450;-62
2023/01/07 05:32:04;;;;;;;13.60;7.20;;;;;;;;;;4917790;29;20545;-62
2023/01/07 05:34:32;;;;;;;11.70;6.87;;;;;;;;;;4929835;29;20478;-62
2023/01/07 05:36:59;;;;;;;13.63;6.40;;;;;;;;;;4926749;29;20454;-63
2023/01/07 05:39:27;;;;;;;14.93;6.90;;;;;;;;;;4917937;29;20481;-62
2023/01/07 05:41:54;;;;;;;11.53;6.00;;;;;;;;;;4920860;29;20467;-62
2023/01/07 05:44:22;;;;;;;12.70;5.90;;;;;;;;;;4918035;29;20246;-62
2023/01/07 05:46:49;;;;;;;14.10;7.00;;;;;;;;;;4935165;29;20439;-63
2023/01/07 05:49:16;;;;;;;11.53;6.30;;;;;;;;;;4935306;29;20474;-62
2023/01/07 05:51:42;;;;;;;15.13;6.60;;;;;;;;;;4930227;29;20490;-62
2023/01/07 05:54:26;;;;;;;11.53;6.53;;;;;;;;;;4934878;29;20506;-62
2023/01/07 05:56:53;;;;;;;15.27;7.50;;;;;;;;;;4934002;29;20842;-62
2023/01/07 05:59:20;;;;;;;14.47;7.10;;;;;;;;;;4934022;29;20562;-62
2023/01/07 06:01:47;;;;;;;15.40;7.43;;;;;;;;;;4934513;29;20517;-62
2023/01/07 06:04:13;;;;;;;15.17;7.60;;;;;;;;;;4934060;29;20540;-62
2023/01/07 06:06:58;;;;;;;20.90;7.97;;;;;;;;;;4934777;29;20506;-62
2023/01/07 06:09:25;;;;;;;15.73;7.07;;;;;;;;;;4934455;29;20454;-62
2023/01/07 06:12:09;;;;;;;15.77;7.03;;;;;;;;;;4915579;29;20423;-62
2023/01/07 06:14:35;;;;;;;16.87;7.47;;;;;;;;;;4915748;29;20443;-62
2023/01/07 06:17:02;;;;;;;15.30;6.80;;;;;;;;;;4915595;29;21128;-62
2023/01/07 06:19:29;;;;;;;12.37;7.07;;;;;;;;;;4929392;29;20942;-62
2023/01/07 06:21:55;;;;;;;14.30;6.87;;;;;;;;;;4915928;29;20447;-62
2023/01/07 06:24:39;;;;;;;13.30;6.60;;;;;;;;;;4933235;29;20481;-62
2023/01/07 06:27:06;;;;;;;11.57;5.80;;;;;;;;;;4933465;29;21057;-62
2023/01/07 06:29:33;;;;;;;14.77;6.20;;;;;;;;;;4911360;29;20447;-63
2023/01/07 06:32:00;;;;;;;12.50;5.67;;;;;;;;;;4940243;29;20446;-63
2023/01/07 06:34:26;;;;;;;9.03;5.63;;;;;;;;;;4926065;29;20486;-62
2023/01/07 06:36:53;;;;;;;25.57;8.77;;;;;;;;;;4933018;29;20473;-63
2023/01/07 06:39:20;;;;;;;26.83;9.13;;;;;;;;;;4929543;29;20521;-63
2023/01/07 06:41:47;;;;;;;28.50;10.07;;;;;;;;;;4929876;28;20251;-63
2023/01/07 06:44:31;;;;;;;20.23;7.87;;;;;;;;;;4935523;29;20481;-64
2023/01/07 06:46:58;;;;;;;22.97;9.10;;;;;;;;;;4934818;29;20442;-67
2023/01/07 06:49:25;;;;;;;14.33;5.90;;;;;;;;;;4933468;29;20543;-64
2023/01/07 06:51:52;;;;;;;10.63;5.60;;;;;;;;;;4932672;29;20861;-64
2023/01/07 06:54:19;;;;;;;17.27;8.10;;;;;;;;;;4934944;29;20987;-63
2023/01/07 06:56:45;;;;;;;17.87;8.10;;;;;;;;;;4927956;29;20451;-63
2023/01/07 06:59:12;;;;;;;16.63;8.30;;;;;;;;;;4930295;29;20466;-64
2023/01/07 07:01:39;;;;;;;20.23;9.73;;;;;;;;;;4929071;29;20443;-64
2023/01/07 07:04:06;;;;;;;19.23;9.20;;;;;;;;;;4923957;29;20577;-64
2023/01/07 07:06:33;;;;;;;24.60;9.80;;;;;;;;;;4931392;29;20446;-65
2023/01/07 07:08:59;;;;;;;21.20;9.23;;;;;;;;;;4931792;29;20529;-63
2023/01/07 07:11:26;;;;;;;19.10;9.07;;;;;;;;;;4941425;29;20434;-63
2023/01/07 07:13:53;;;;;;;17.23;7.53;;;;;;;;;;4937508;28;20441;-64
2023/01/07 07:16:21;;;;;;;13.50;7.03;;;;;;;;;;4938415;28;20446;-63
2023/01/07 07:18:48;;;;;;;17.50;7.17;;;;;;;;;;4935167;28;20450;-62
2023/01/07 07:21:15;;;;;;;12.83;6.67;;;;;;;;;;4931887;29;20449;-62
2023/01/07 07:23:41;;;;;;;21.30;6.83;;;;;;;;;;4937399;29;20486;-63
2023/01/07 07:26:26;;;;;;;16.73;6.53;;;;;;;;;;4926498;29;20509;-63
2023/01/07 07:28:52;;;;;;;12.83;6.07;;;;;;;;;;4930194;29;20470;-63
2023/01/07 07:31:37;;;;;;;13.80;5.23;;;;;;;;;;4920121;29;20430;-61
2023/01/07 07:34:03;;;;;;;20.83;6.53;;;;;;;;;;4919587;29;20537;-61
2023/01/07 07:36:30;;;;;;;17.30;6.33;;;;;;;;;;4926462;29;20541;-62
2023/01/07 07:38:57;;;;;;;15.13;6.37;;;;;;;;;;4936035;28;21255;-63
2023/01/07 07:41:23;;;;;;;15.87;6.80;;;;;;;;;;4930953;29;20450;-63
2023/01/07 07:43:50;;;;;;;14.57;6.93;;;;;;;;;;4930525;29;20922;-62
2023/01/07 07:46:17;;;;;;;20.43;7.00;;;;;;;;;;4930696;29;20989;-63
2023/01/07 07:48:43;;;;;;;17.80;7.47;;;;;;;;;;4927356;29;20455;-62
2023/01/07 07:51:28;;;;;;;18.53;7.17;;;;;;;;;;4920708;29;20423;-62
2023/01/07 07:53:54;;;;;;;15.07;6.90;;;;;;;;;;4934830;29;20439;-62
2023/01/07 07:56:21;;;;;;;17.23;8.07;;;;;;;;;;4930132;29;21116;-62
2023/01/07 07:58:48;;;;;;;16.60;8.57;;;;;;;;;;4930262;29;20485;-62
2023/01/07 08:01:14;;;;;;;16.27;8.30;;;;;;;;;;4929147;29;20806;-61
2023/01/07 08:03:41;;;;;;;19.60;9.27;;;;;;;;;;4933455;29;20476;-62
2023/01/07 08:06:08;;;;;;;21.30;10.10;;;;;;;;;;4930917;29;20506;-62
2023/01/07 08:08:35;;;;;;;24.80;10.00;;;;;;;;;;4929047;29;20784;-63
2023/01/07 08:11:20;;;;;;;19.23;10.10;;;;;;;;;;4929982;29;20882;-62
2023/01/07 08:13:47;;;;;;;18.70;8.80;;;;;;;;;;4935160;29;20450;-63
2023/01/07 08:16:14;;;;;;;14.13;7.77;;;;;;;;;;4929619;29;20183;-63
2023/01/07 08:18:41;;;;;;;15.13;7.63;;;;;;;;;;4933843;29;20475;-63
2023/01/07 08:21:08;;;;;;;12.67;7.87;;;;;;;;;;4924720;29;20533;-63
2023/01/07 08:23:35;;;;;;;12.20;7.40;;;;;;;;;;4933452;29;20478;-61
2023/01/07 08:26:01;;;;;;;14.97;7.73;;;;;;;;;;4929799;29;20572;-63
2023/01/07 08:28:29;;;;;;;17.33;9.23;;;;;;;;;;4933143;29;20294;-62
2023/01/07 08:30:56;;;;;;;18.57;8.40;;;;;;;;;;4912069;29;20671;-61
2023/01/07 08:33:23;;;;;;;19.03;9.47;;;;;;;;;;4934392;29;20206;-60
2023/01/07 08:35:50;;;;;;;18.30;9.90;;;;;;;;;;4920178;29;20250;-60
2023/01/07 08:38:17;;;;;;;20.53;10.50;;;;;;;;;;4926622;29;20199;-60
2023/01/07 08:40:44;;;;;;;19.37;10.87;;;;;;;;;;4929300;29;20265;-60
2023/01/07 08:43:11;;;;;;;24.40;10.90;;;;;;;;;;4941582;29;20474;-60
2023/01/07 08:45:38;;;;;;;21.23;10.43;;;;;;;;;;4916438;29;20534;-60
2023/01/07 08:48:04;;;;;;;23.00;11.43;;;;;;;;;;4929849;29;20199;-62
2023/01/07 08:50:31;;;;;;;22.17;10.90;;;;;;;;;;4930836;29;20921;-59
2023/01/07 08:52:58;;;;;;;23.73;10.67;;;;;;;;;;4914106;29;20926;-60
2023/01/07 08:55:25;;;;;;;21.53;10.60;;;;;;;;;;4913705;29;20443;-61
2023/01/07 08:57:51;;;;;;;20.63;10.67;;;;;;;;;;4931657;29;20934;-62
2023/01/07 09:00:36;;;;;;;19.83;9.93;;;;;;;;;;4918759;28;20702;-61
2023/01/07 09:03:03;;;;;;;18.13;9.20;;;;;;;;;;4929033;29;20243;-60
2023/01/07 09:05:30;;;;;;;18.07;10.03;;;;;;;;;;4929325;29;20250;-61
2023/01/07 09:08:02;;;;;;;20.10;10.43;;;;;;;;;;4932495;29;20718;-61
2023/01/07 09:10:29;;;;;;;20.00;10.40;;;;;;;;;;4932729;29;20734;-62
2023/01/07 09:12:56;;;;;;;18.33;10.17;;;;;;;;;;4932929;29;20285;-62
2023/01/07 09:15:22;;;;;;;22.97;10.90;;;;;;;;;;4931571;29;20246;-61
2023/01/07 09:17:49;;;;;;;27.83;11.67;;;;;;;;;;4930868;29;20222;-62
2023/01/07 09:20:16;;;;;;;26.30;12.97;;;;;;;;;;4931807;29;20195;-61
2023/01/07 09:22:43;;;;;;;31.10;13.17;;;;;;;;;;4932954;29;20195;-62
2023/01/07 09:25:09;;;;;;;29.20;14.90;;;;;;;;;;4932037;29;20236;-61
2023/01/07 09:27:36;;;;;;;25.07;13.60;;;;;;;;;;4930858;29;21127;-61
2023/01/07 09:30:04;;;;;;;23.80;12.47;;;;;;;;;;4931239;29;20190;-62
2023/01/07 09:32:31;;;;;;;26.80;12.77;;;;;;;;;;4912330;29;20203;-62
2023/01/07 09:34:58;;;;;;;25.07;12.60;;;;;;;;;;4930469;29;20207;-62
2023/01/07 09:37:25;;;;;;;25.57;13.40;;;;;;;;;;4935258;29;20213;-61
2023/01/07 09:39:51;;;;;;;26.27;13.40;;;;;;;;;;4935575;29;20206;-61
2023/01/07 09:42:37;;;;;;;23.47;12.93;;;;;;;;;;4935182;29;20198;-61
2023/01/07 09:45:17;;;;;;;28.17;12.63;;;;;;;;;;4932284;29;20295;-62
2023/01/07 09:47:45;;;;;;;26.10;13.53;;;;;;;;;;4925505;29;20194;-61
2023/01/07 09:50:18;;;;;;;26.83;13.90;;;;;;;;;;4933616;29;20223;-61
2023/01/07 09:52:46;;;;;;;29.10;13.90;;;;;;;;;;4923455;29;20658;-61
2023/01/07 09:55:16;;;;;;;24.20;13.03;;;;;;;;;;4928077;29;20596;-61
2023/01/07 09:57:43;;;;;;;28.67;12.50;;;;;;;;;;4946325;28;20200;-61
2023/01/07 10:00:16;;;;;;;22.67;11.23;;;;;;;;;;4934464;29;20194;-61
2023/01/07 10:02:45;;;;;;;30.83;12.77;;;;;;;;;;4934417;29;20198;-61
2023/01/07 10:05:41;;;;;;;24.50;11.73;;;;;;;;;;4917868;29;20214;-61
2023/01/07 10:08:43;;;;;;;19.93;10.80;;;;;;;;;;4875729;29;20573;-61
2023/01/07 10:11:16;;;;;;;26.30;11.47;;;;;;;;;;4933323;29;20209;-61
2023/01/07 10:13:47;;;;;;;22.97;11.13;;;;;;;;;;4934103;29;21590;-60
2023/01/07 10:16:20;;;;;;;27.97;11.13;;;;;;;;;;4916753;29;20202;-61
2023/01/07 10:19:05;;;;;;;20.30;10.73;;;;;;;;;;4934293;29;20246;-61
2023/01/07 10:21:37;;;;;;;24.83;12.00;;;;;;;;;;4930956;29;20549;-61
2023/01/07 10:24:08;;;;;;;26.90;13.30;;;;;;;;;;4914132;29;20595;-61
2023/01/07 10:26:37;;;;;;;27.87;13.70;;;;;;;;;;4918278;29;21527;-61
2023/01/07 10:29:10;;;;;;;31.33;15.53;;;;;;;;;;4917439;29;20475;-62
2023/01/07 10:31:37;;;;;;;33.97;17.83;;;;;;;;;;4921159;29;20455;-61
2023/01/07 10:34:05;;;;;;;31.37;16.90;;;;;;;;;;4927470;29;20881;-61
2023/01/07 10:36:33;;;;;;;31.90;16.57;;;;;;;;;;4925256;29;20462;-61
2023/01/07 10:39:09;;;;;;;30.83;14.93;;;;;;;;;;4930809;29;20203;-63
2023/01/07 10:41:39;;;;;;;28.07;15.23;;;;;;;;;;4934945;28;20786;-60
2023/01/07 10:44:06;;;;;;;27.30;15.20;;;;;;;;;;4931796;29;20211;-62
2023/01/07 10:46:42;;;;;;;29.60;14.87;;;;;;;;;;4931359;29;20194;-61
2023/01/07 10:49:10;;;;;;;31.07;15.80;;;;;;;;;;4919771;29;20685;-61
2023/01/07 10:51:44;;;;;;;27.20;14.93;;;;;;;;;;4933881;29;20278;-61
2023/01/07 10:54:12;;;;;;;25.47;14.20;;;;;;;;;;4913921;29;21718;-61
2023/01/07 10:56:45;;;;;;;25.03;13.87;;;;;;;;;;4928684;29;20195;-61
2023/01/07 10:59:32;;;;;;;23.73;12.40;;;;;;;;;;4931106;29;20671;-61
2023/01/07 11:01:59;;;;;;;22.93;12.87;;;;;;;;;;4927537;28;20195;-60
2023/01/07 11:04:44;;;;;;;26.33;13.97;;;;;;;;;;4931058;29;20207;-62
2023/01/07 11:07:21;;;;;;;23.83;14.10;;;;;;;;;;4930171;29;20225;-61
2023/01/07 11:09:48;;;;;;;23.77;13.60;;;;;;;;;;4915764;29;20221;-62
2023/01/07 11:12:17;;;;;;;24.67;13.73;;;;;;;;;;4942962;29;20902;-62
2023/01/07 11:14:47;;;;;;;26.50;14.93;;;;;;;;;;4928825;29;20780;-63
2023/01/07 11:17:14;;;;;;;24.87;13.97;;;;;;;;;;4917440;29;20831;-60
2023/01/07 11:19:50;;;;;;;23.77;13.37;;;;;;;;;;4932856;29;20281;-60
2023/01/07 11:22:26;;;;;;;22.73;13.33;;;;;;;;;;4936178;29;20185;-63
2023/01/07 11:24:57;;;;;;;23.13;12.60;;;;;;;;;;4929882;29;20226;-62
2023/01/07 11:27:24;;;;;;;28.10;13.60;;;;;;;;;;4930148;29;20191;-62
2023/01/07 11:30:04;;;;;;;25.87;14.40;;;;;;;;;;4933493;29;20595;-62
2023/01/07 11:32:31;;;;;;;23.50;13.07;;;;;;;;;;4935371;29;20245;-62
2023/01/07 11:34:59;;;;;;;22.17;12.90;;;;;;;;;;4933025;29;20595;-62
2023/01/07 11:37:37;;;;;;;24.93;12.27;;;;;;;;;;4931339;29;20205;-62
2023/01/07 11:40:19;;;;;;;22.87;13.03;;;;;;;;;;4921776;29;20269;-62
2023/01/07 11:42:50;;;;;;;24.67;13.17;;;;;;;;;;4919528;29;20238;-64
2023/01/07 11:45:17;;;;;;;25.37;14.17;;;;;;;;;;4931733;29;20573;-61
2023/01/07 11:48:02;;;;;;;24.23;12.60;;;;;;;;;;4932947;29;20305;-61
2023/01/07 11:50:32;;;;;;;23.80;13.53;;;;;;;;;;4916297;29;20237;-61
2023/01/07 11:53:05;;;;;;;26.40;14.87;;;;;;;;;;4935003;29;20194;-61
2023/01/07 11:55:32;;;;;;;24.87;14.97;;;;;;;;;;4932380;29;20518;-63
2023/01/07 11:58:01;;;;;;;28.43;14.73;;;;;;;;;;4932313;29;20281;-61
2023/01/07 12:01:06;;;;;;;27.63;15.67;;;;;;;;;;4938928;29;20191;-60
2023/01/07 12:03:34;;;;;;;32.53;15.60;;;;;;;;;;4932223;29;21218;-61
2023/01/07 12:06:07;;;;;;;29.77;15.47;;;;;;;;;;4932099;29;20702;-61
2023/01/07 12:08:58;;;;;;;29.47;15.83;;;;;;;;;;4916742;29;20447;-61
2023/01/07 12:11:29;;;;;;;34.90;15.90;;;;;;;;;;4930671;29;20579;-61
2023/01/07 12:13:56;;;;;;;33.80;17.40;;;;;;;;;;4914328;29;20519;-61
2023/01/07 12:16:29;;;;;;;30.47;16.27;;;;;;;;;;4930554;29;20262;-61
2023/01/07 12:18:59;;;;;;;30.70;16.63;;;;;;;;;;4931341;29;20199;-61
2023/01/07 12:21:33;;;;;;;32.10;17.97;;;;;;;;;;4918289;29;20196;-61
2023/01/07 12:24:01;;;;;;;35.13;19.13;;;;;;;;;;4932389;29;20183;-61
2023/01/07 12:26:30;;;;;;;32.83;18.33;;;;;;;;;;4925364;29;20230;-61
2023/01/07 12:28:57;;;;;;;32.33;18.90;;;;;;;;;;4932468;29;20198;-61
2023/01/07 12:31:26;;;;;;;33.03;18.00;;;;;;;;;;4931906;29;20194;-64
2023/01/07 12:33:57;;;;;;;33.83;18.50;;;;;;;;;;4921313;29;20528;-61
2023/01/07 12:36:26;;;;;;;29.60;17.97;;;;;;;;;;4913309;29;20195;-61
2023/01/07 12:38:54;;;;;;;42.73;21.80;;;;;;;;;;4931585;29;20191;-61
2023/01/07 12:41:29;;;;;;;48.67;23.10;;;;;;;;;;4930486;29;20199;-61
2023/01/07 12:43:56;;;;;;;44.70;23.07;;;;;;;;;;4902581;29;20229;-61
2023/01/07 12:46:23;;;;;;;38.20;20.50;;;;;;;;;;4931422;29;20195;-62
2023/01/07 12:48:56;;;;;;;47.07;23.70;;;;;;;;;;4930700;29;20324;-62
2023/01/07 12:51:27;;;;;;;40.27;22.67;;;;;;;;;;4919396;29;20595;-62
2023/01/07 12:53:55;;;;;;;35.83;20.00;;;;;;;;;;4930514;29;20332;-62
2023/01/07 12:56:23;;;;;;;36.03;19.63;;;;;;;;;;4913652;29;20233;-62
2023/01/07 12:58:51;;;;;;;44.03;24.00;;;;;;;;;;4929776;29;20183;-62
2023/01/07 13:01:47;;;;;;;41.30;21.80;;;;;;;;;;4928084;29;20717;-62
2023/01/07 13:04:49;;;;;;;38.33;21.60;;;;;;;;;;4920567;29;20218;-62
2023/01/07 13:07:22;;;;;;;30.33;17.10;;;;;;;;;;4865866;29;20346;-62
2023/01/07 13:10:11;;;;;;;34.00;18.70;;;;;;;;;;4911257;29;20190;-64
2023/01/07 13:12:41;;;;;;;31.17;16.20;;;;;;;;;;4917303;29;20658;-62
2023/01/07 13:15:11;;;;;;;32.00;17.63;;;;;;;;;;4919800;29;20840;-62
2023/01/07 13:17:39;;;;;;;32.13;17.10;;;;;;;;;;4927439;29;20203;-62
2023/01/07 13:20:10;;;;;;;30.57;15.93;;;;;;;;;;4911526;29;20221;-63
2023/01/07 13:22:40;;;;;;;29.90;15.10;;;;;;;;;;4919210;29;20254;-62
2023/01/07 13:25:25;;;;;;;32.90;14.73;;;;;;;;;;4935450;29;20229;-62
2023/01/07 13:28:06;;;;;;;35.23;20.40;;;;;;;;;;4935547;29;20194;-62
2023/01/07 13:30:38;;;;;;;37.57;20.57;;;;;;;;;;4935521;29;20223;-62
2023/01/07 13:33:24;;;;;;;35.30;19.90;;;;;;;;;;4912147;29;20183;-62
2023/01/07 13:35:55;;;;;;;33.70;19.57;;;;;;;;;;4930170;29;20229;-62
2023/01/07 13:38:53;;;;;;;35.23;19.63;;;;;;;;;;4934816;29;20175;-62
2023/01/07 13:41:31;;;;;;;37.30;19.87;;;;;;;;;;4918695;29;20615;-62
2023/01/07 13:44:14;;;;;;;43.97;22.07;;;;;;;;;;4934719;29;20202;-62
2023/01/07 13:46:41;;;;;;;29.60;17.43;;;;;;;;;;4933786;29;20785;-62
2023/01/07 13:49:24;;;;;;;33.87;18.83;;;;;;;;;;4931468;29;20666;-64
2023/01/07 13:51:51;;;;;;;32.90;17.67;;;;;;;;;;4935088;29;20237;-57
2023/01/07 13:54:48;;;;;;;35.40;18.87;;;;;;;;;;4934998;29;20171;-63
2023/01/07 13:57:30;;;;;;;43.60;22.13;;;;;;;;;;4934739;29;20194;-62
2023/01/07 13:59:58;;;;;;;37.87;20.83;;;;;;;;;;4918768;29;20730;-63
2023/01/07 14:02:25;;;;;;;44.37;22.43;;;;;;;;;;4932109;28;20190;-63
2023/01/07 14:05:25;;;;;;;41.20;22.07;;;;;;;;;;4943186;29;20321;-63
2023/01/07 14:08:09;;;;;;;36.03;19.67;;;;;;;;;;4904332;29;20651;-62
2023/01/07 14:10:36;;;;;;;35.40;19.30;;;;;;;;;;4934744;29;20195;-63
2023/01/07 14:13:05;;;;;;;36.23;19.70;;;;;;;;;;4934770;29;20329;-63
2023/01/07 14:16:05;;;;;;;36.43;19.97;;;;;;;;;;4935158;29;20198;-62
2023/01/07 14:18:49;;;;;;;33.47;18.23;;;;;;;;;;4917819;29;20650;-62
2023/01/07 14:21:45;;;;;;;34.60;18.50;;;;;;;;;;4916490;29;20438;-62
2023/01/07 14:24:25;;;;;;;61.47;34.50;;;;;;;;;;4918444;29;20447;-62
2023/01/07 14:27:04;;;;;;;50.00;29.20;;;;;;;;;;4933390;29;20226;-62
2023/01/07 14:29:43;;;;;;;56.63;31.07;;;;;;;;;;4918006;29;20932;-62
2023/01/07 14:32:22;;;;;;;57.50;30.80;;;;;;;;;;4932290;29;20242;-62
2023/01/07 14:34:53;;;;;;;49.00;26.40;;;;;;;;;;4935023;29;20217;-61
2023/01/07 14:37:27;;;;;;;56.57;29.33;;;;;;;;;;4928777;29;20286;-62
2023/01/07 14:40:24;;;;;;;77.60;37.20;;;;;;;;;;4934269;29;20435;-61
2023/01/07 14:42:54;;;;;;;68.27;35.13;;;;;;;;;;4935188;29;20438;-62
2023/01/07 14:45:39;;;;;;;63.07;31.37;;;;;;;;;;4935265;29;20838;-62
2023/01/07 14:48:06;;;;;;;67.20;33.60;;;;;;;;;;4922362;29;20439;-61
2023/01/07 14:51:10;;;;;;;56.43;31.43;;;;;;;;;;4934766;29;20449;-61
2023/01/07 14:53:56;;;;;;;63.30;32.20;;;;;;;;;;4935064;29;20451;-62
2023/01/07 14:56:29;;;;;;;57.93;29.50;;;;;;;;;;4932511;29;20454;-62
2023/01/07 14:59:14;;;;;;;59.80;30.40;;;;;;;;;;4927391;29;20438;-62
2023/01/07 15:02:14;;;;;;;54.40;28.00;;;;;;;;;;4921708;29;20433;-63
2023/01/07 15:05:03;;;;;;;50.03;25.60;;;;;;;;;;4916625;29;20442;-66
2023/01/07 15:07:31;;;;;;;41.43;22.47;;;;;;;;;;4933766;29;20997;-62
2023/01/07 15:16:00;;;;;;;45.90;24.33;;;;;;;;;;4933114;29;20814;-63
2023/01/07 15:18:31;;;;;;;48.17;23.20;;;;;;;;;;4932892;29;20449;-62
2023/01/07 15:20:57;;;;;;;38.57;20.63;;;;;;;;;;4932396;29;20486;-62
2023/01/07 15:23:36;;;;;;;39.03;21.20;;;;;;;;;;4933036;29;20926;-61
2023/01/07 15:26:27;;;;;;;43.40;22.67;;;;;;;;;;4933360;29;20854;-61
2023/01/07 15:29:12;;;;;;;42.53;22.37;;;;;;;;;;4916294;29;20972;-62
2023/01/07 15:31:58;;;;;;;48.50;25.50;;;;;;;;;;4926733;29;20454;-61